sensor_id;sensor_type;location;lat;lon;timestamp;temperature;humidity
76384;SHT30;65204;48.606;7.598;2023-07-31T00:00:29;21.06;56.96
76384;SHT30;65204;48.606;7.598;2023-07-31T00:00:59;21.06;57.00
76384;SHT30;65204;48.606;7.598;2023-07-31T00:01:29;21.04;56.97
76384;SHT30;65204;48.606;7.598;2023-07-31T00:01:59;21.03;56.97
76384;SHT30;65204;48.606;7.598;2023-07-31T00:02:30;21.04;57.03
76384;SHT30;65204;48.606;7.598;2023-07-31T00:03:00;21.01;56.96
76384;SHT30;65204;48.606;7.598;2023-07-31T00:03:30;21.01;57.10
76384;SHT30;65204;48.606;7.598;2023-07-31T00:04:01;21.00;57.23
76384;SHT30;65204;48.606;7.598;2023-07-31T00:04:31;20.97;57.28
76384;SHT30;65204;48.606;7.598;2023-07-31T00:05:02;20.97;57.30
76384;SHT30;65204;48.606;7.598;2023-07-31T00:05:32;20.97;57.29
76384;SHT30;65204;48.606;7.598;2023-07-31T00:06:02;21.00;57.13
76384;SHT30;65204;48.606;7.598;2023-07-31T00:06:33;21.03;57.13
76384;SHT30;65204;48.606;7.598;2023-07-31T00:07:03;20.99;57.13
76384;SHT30;65204;48.606;7.598;2023-07-31T00:07:34;20.99;57.17
76384;SHT30;65204;48.606;7.598;2023-07-31T00:08:04;20.96;57.20
76384;SHT30;65204;48.606;7.598;2023-07-31T00:08:34;20.94;57.37
76384;SHT30;65204;48.606;7.598;2023-07-31T00:09:05;20.97;57.33
76384;SHT30;65204;48.606;7.598;2023-07-31T00:09:36;20.94;57.27
76384;SHT30;65204;48.606;7.598;2023-07-31T00:10:06;20.93;57.27
76384;SHT30;65204;48.606;7.598;2023-07-31T00:10:37;20.93;57.11
76384;SHT30;65204;48.606;7.598;2023-07-31T00:11:07;20.91;57.15
76384;SHT30;65204;48.606;7.598;2023-07-31T00:11:38;20.94;57.23
76384;SHT30;65204;48.606;7.598;2023-07-31T00:12:08;20.90;57.49
76384;SHT30;65204;48.606;7.598;2023-07-31T00:12:41;20.90;57.54
76384;SHT30;65204;48.606;7.598;2023-07-31T00:13:12;20.89;57.51
76384;SHT30;65204;48.606;7.598;2023-07-31T00:13:42;20.89;57.35
76384;SHT30;65204;48.606;7.598;2023-07-31T00:14:12;20.89;57.35
76384;SHT30;65204;48.606;7.598;2023-07-31T00:14:43;20.84;57.42
76384;SHT30;65204;48.606;7.598;2023-07-31T00:15:14;20.81;57.46
76384;SHT30;65204;48.606;7.598;2023-07-31T00:15:44;20.81;57.40
76384;SHT30;65204;48.606;7.598;2023-07-31T00:16:15;20.83;57.39
76384;SHT30;65204;48.606;7.598;2023-07-31T00:16:45;20.81;57.26
76384;SHT30;65204;48.606;7.598;2023-07-31T00:17:16;20.81;57.36
76384;SHT30;65204;48.606;7.598;2023-07-31T00:17:47;20.83;57.45
76384;SHT30;65204;48.606;7.598;2023-07-31T00:18:17;20.81;57.54
76384;SHT30;65204;48.606;7.598;2023-07-31T00:18:48;20.79;57.44
76384;SHT30;65204;48.606;7.598;2023-07-31T00:19:18;20.80;57.51
76384;SHT30;65204;48.606;7.598;2023-07-31T00:19:48;20.79;57.44
76384;SHT30;65204;48.606;7.598;2023-07-31T00:20:21;20.76;57.49
76384;SHT30;65204;48.606;7.598;2023-07-31T00:20:51;20.77;57.58
76384;SHT30;65204;48.606;7.598;2023-07-31T00:21:22;20.77;57.77
76384;SHT30;65204;48.606;7.598;2023-07-31T00:21:52;20.76;57.85
76384;SHT30;65204;48.606;7.598;2023-07-31T00:22:22;20.76;57.88
76384;SHT30;65204;48.606;7.598;2023-07-31T00:22:53;20.80;57.82
76384;SHT30;65204;48.606;7.598;2023-07-31T00:23:23;20.77;57.71
76384;SHT30;65204;48.606;7.598;2023-07-31T00:23:53;20.75;57.65
76384;SHT30;65204;48.606;7.598;2023-07-31T00:24:23;20.72;57.72
76384;SHT30;65204;48.606;7.598;2023-07-31T00:24:54;20.72;57.65
76384;SHT30;65204;48.606;7.598;2023-07-31T00:25:24;20.72;57.71
76384;SHT30;65204;48.606;7.598;2023-07-31T00:25:54;20.72;57.71
76384;SHT30;65204;48.606;7.598;2023-07-31T00:26:25;20.70;57.75
76384;SHT30;65204;48.606;7.598;2023-07-31T00:26:55;20.72;57.86
76384;SHT30;65204;48.606;7.598;2023-07-31T00:27:25;20.69;57.81
76384;SHT30;65204;48.606;7.598;2023-07-31T00:27:56;20.69;57.87
76384;SHT30;65204;48.606;7.598;2023-07-31T00:28:26;20.70;57.88
76384;SHT30;65204;48.606;7.598;2023-07-31T00:28:58;20.67;57.77
76384;SHT30;65204;48.606;7.598;2023-07-31T00:29:29;20.67;57.88
76384;SHT30;65204;48.606;7.598;2023-07-31T00:29:59;20.66;57.98
76384;SHT30;65204;48.606;7.598;2023-07-31T00:30:29;20.67;58.05
76384;SHT30;65204;48.606;7.598;2023-07-31T00:31:00;20.65;58.02
76384;SHT30;65204;48.606;7.598;2023-07-31T00:31:30;20.66;57.92
76384;SHT30;65204;48.606;7.598;2023-07-31T00:32:00;20.66;57.75
76384;SHT30;65204;48.606;7.598;2023-07-31T00:32:31;20.66;57.68
76384;SHT30;65204;48.606;7.598;2023-07-31T00:33:01;20.65;57.72
76384;SHT30;65204;48.606;7.598;2023-07-31T00:33:31;20.63;57.82
76384;SHT30;65204;48.606;7.598;2023-07-31T00:34:02;20.65;57.83
76384;SHT30;65204;48.606;7.598;2023-07-31T00:34:32;20.63;57.84
76384;SHT30;65204;48.606;7.598;2023-07-31T00:35:03;20.63;57.84
76384;SHT30;65204;48.606;7.598;2023-07-31T00:35:34;20.63;57.83
76384;SHT30;65204;48.606;7.598;2023-07-31T00:36:04;20.62;57.93
76384;SHT30;65204;48.606;7.598;2023-07-31T00:36:34;20.62;57.98
76384;SHT30;65204;48.606;7.598;2023-07-31T00:37:05;20.62;58.04
76384;SHT30;65204;48.606;7.598;2023-07-31T00:37:35;20.59;58.19
76384;SHT30;65204;48.606;7.598;2023-07-31T00:38:06;20.59;58.13
76384;SHT30;65204;48.606;7.598;2023-07-31T00:38:36;20.59;58.12
76384;SHT30;65204;48.606;7.598;2023-07-31T00:39:07;20.59;58.12
76384;SHT30;65204;48.606;7.598;2023-07-31T00:39:37;20.56;58.27
76384;SHT30;65204;48.606;7.598;2023-07-31T00:40:08;20.56;58.34
76384;SHT30;65204;48.606;7.598;2023-07-31T00:40:38;20.57;58.31
76384;SHT30;65204;48.606;7.598;2023-07-31T00:41:09;20.55;58.29
76384;SHT30;65204;48.606;7.598;2023-07-31T00:41:39;20.56;58.07
76384;SHT30;65204;48.606;7.598;2023-07-31T00:42:09;20.57;57.96
76384;SHT30;65204;48.606;7.598;2023-07-31T00:42:39;20.53;57.98
76384;SHT30;65204;48.606;7.598;2023-07-31T00:43:10;20.53;58.08
76384;SHT30;65204;48.606;7.598;2023-07-31T00:43:40;20.52;58.04
76384;SHT30;65204;48.606;7.598;2023-07-31T00:44:10;20.50;58.01
76384;SHT30;65204;48.606;7.598;2023-07-31T00:44:41;20.53;57.96
76384;SHT30;65204;48.606;7.598;2023-07-31T00:45:11;20.52;57.80
76384;SHT30;65204;48.606;7.598;2023-07-31T00:45:42;20.52;57.85
76384;SHT30;65204;48.606;7.598;2023-07-31T00:46:12;20.49;57.89
76384;SHT30;65204;48.606;7.598;2023-07-31T00:46:43;20.52;57.78
76384;SHT30;65204;48.606;7.598;2023-07-31T00:47:14;20.53;57.76
76384;SHT30;65204;48.606;7.598;2023-07-31T00:47:44;20.49;57.80
76384;SHT30;65204;48.606;7.598;2023-07-31T00:48:15;20.52;57.71
76384;SHT30;65204;48.606;7.598;2023-07-31T00:48:45;20.53;57.53
76384;SHT30;65204;48.606;7.598;2023-07-31T00:49:16;20.52;57.56
76384;SHT30;65204;48.606;7.598;2023-07-31T00:49:46;20.50;57.61
76384;SHT30;65204;48.606;7.598;2023-07-31T00:50:17;20.52;57.60
76384;SHT30;65204;48.606;7.598;2023-07-31T00:50:48;20.49;57.54
76384;SHT30;65204;48.606;7.598;2023-07-31T00:51:18;20.46;57.53
76384;SHT30;65204;48.606;7.598;2023-07-31T00:51:49;20.50;57.58
76384;SHT30;65204;48.606;7.598;2023-07-31T00:52:20;20.50;57.56
76384;SHT30;65204;48.606;7.598;2023-07-31T00:52:50;20.52;57.53
76384;SHT30;65204;48.606;7.598;2023-07-31T00:53:21;20.50;57.46
76384;SHT30;65204;48.606;7.598;2023-07-31T00:53:52;20.53;57.59
76384;SHT30;65204;48.606;7.598;2023-07-31T00:54:24;20.50;57.54
76384;SHT30;65204;48.606;7.598;2023-07-31T00:54:54;20.52;57.60
76384;SHT30;65204;48.606;7.598;2023-07-31T00:55:25;20.53;57.36
76384;SHT30;65204;48.606;7.598;2023-07-31T00:55:56;20.52;57.30
76384;SHT30;65204;48.606;7.598;2023-07-31T00:56:27;20.52;57.42
76384;SHT30;65204;48.606;7.598;2023-07-31T00:56:58;20.55;57.44
76384;SHT30;65204;48.606;7.598;2023-07-31T00:57:31;20.53;57.42
76384;SHT30;65204;48.606;7.598;2023-07-31T00:58:02;20.53;57.49
76384;SHT30;65204;48.606;7.598;2023-07-31T00:58:32;20.55;57.62
76384;SHT30;65204;48.606;7.598;2023-07-31T00:59:02;20.53;57.49
76384;SHT30;65204;48.606;7.598;2023-07-31T00:59:33;20.53;57.42
76384;SHT30;65204;48.606;7.598;2023-07-31T01:00:03;20.56;57.38
76384;SHT30;65204;48.606;7.598;2023-07-31T01:00:34;20.55;57.35
76384;SHT30;65204;48.606;7.598;2023-07-31T01:01:04;20.55;57.29
76384;SHT30;65204;48.606;7.598;2023-07-31T01:01:35;20.56;57.22
76384;SHT30;65204;48.606;7.598;2023-07-31T01:02:06;20.56;57.25
76384;SHT30;65204;48.606;7.598;2023-07-31T01:02:37;20.57;57.35
76384;SHT30;65204;48.606;7.598;2023-07-31T01:03:07;20.56;57.32
76384;SHT30;65204;48.606;7.598;2023-07-31T01:03:38;20.57;57.13
76384;SHT30;65204;48.606;7.598;2023-07-31T01:04:09;20.60;57.24
76384;SHT30;65204;48.606;7.598;2023-07-31T01:04:42;20.56;57.22
76384;SHT30;65204;48.606;7.598;2023-07-31T01:05:13;20.60;57.25
76384;SHT30;65204;48.606;7.598;2023-07-31T01:06:48;20.55;57.25
76384;SHT30;65204;48.606;7.598;2023-07-31T01:07:35;20.56;57.27
76384;SHT30;65204;48.606;7.598;2023-07-31T01:08:37;20.53;57.35
76384;SHT30;65204;48.606;7.598;2023-07-31T01:10:22;20.39;57.31
76384;SHT30;65204;48.606;7.598;2023-07-31T01:11:00;20.40;57.54
76384;SHT30;65204;48.606;7.598;2023-07-31T01:11:41;20.40;57.60
76384;SHT30;65204;48.606;7.598;2023-07-31T01:12:14;20.40;57.47
76384;SHT30;65204;48.606;7.598;2023-07-31T01:12:48;20.42;57.46
76384;SHT30;65204;48.606;7.598;2023-07-31T01:13:19;20.42;57.55
76384;SHT30;65204;48.606;7.598;2023-07-31T01:13:49;20.40;57.44
76384;SHT30;65204;48.606;7.598;2023-07-31T01:14:19;20.42;57.47
76384;SHT30;65204;48.606;7.598;2023-07-31T01:15:03;20.39;57.35
76384;SHT30;65204;48.606;7.598;2023-07-31T01:15:33;20.40;57.40
76384;SHT30;65204;48.606;7.598;2023-07-31T01:16:04;20.42;57.41
76384;SHT30;65204;48.606;7.598;2023-07-31T01:16:34;20.43;57.47
76384;SHT30;65204;48.606;7.598;2023-07-31T01:17:05;20.40;57.41
76384;SHT30;65204;48.606;7.598;2023-07-31T01:17:35;20.43;57.37
76384;SHT30;65204;48.606;7.598;2023-07-31T01:18:06;20.45;57.45
76384;SHT30;65204;48.606;7.598;2023-07-31T01:18:37;20.45;57.42
76384;SHT30;65204;48.606;7.598;2023-07-31T01:19:09;20.46;57.41
76384;SHT30;65204;48.606;7.598;2023-07-31T01:19:40;20.45;57.40
76384;SHT30;65204;48.606;7.598;2023-07-31T01:20:14;20.45;57.40
76384;SHT30;65204;48.606;7.598;2023-07-31T01:20:54;20.42;57.51
76384;SHT30;65204;48.606;7.598;2023-07-31T01:22:24;20.35;57.72
76384;SHT30;65204;48.606;7.598;2023-07-31T01:23:28;20.29;57.99
76384;SHT30;65204;48.606;7.598;2023-07-31T01:24:12;20.30;57.84
76384;SHT30;65204;48.606;7.598;2023-07-31T01:26:21;20.26;57.87
76384;SHT30;65204;48.606;7.598;2023-07-31T01:27:06;20.24;57.91
76384;SHT30;65204;48.606;7.598;2023-07-31T01:27:59;20.24;57.95
76384;SHT30;65204;48.606;7.598;2023-07-31T01:28:51;20.22;57.92
76384;SHT30;65204;48.606;7.598;2023-07-31T01:29:38;20.21;57.98
76384;SHT30;65204;48.606;7.598;2023-07-31T01:30:21;20.19;58.09
76384;SHT30;65204;48.606;7.598;2023-07-31T01:30:55;20.22;58.07
76384;SHT30;65204;48.606;7.598;2023-07-31T01:31:29;20.24;58.05
76384;SHT30;65204;48.606;7.598;2023-07-31T01:32:01;20.24;58.05
76384;SHT30;65204;48.606;7.598;2023-07-31T01:32:33;20.25;58.04
76384;SHT30;65204;48.606;7.598;2023-07-31T01:33:04;20.25;58.03
76384;SHT30;65204;48.606;7.598;2023-07-31T01:33:37;20.26;58.03
76384;SHT30;65204;48.606;7.598;2023-07-31T01:34:09;20.29;57.97
76384;SHT30;65204;48.606;7.598;2023-07-31T01:34:41;20.30;58.00
76384;SHT30;65204;48.606;7.598;2023-07-31T01:35:12;20.32;57.94
76384;SHT30;65204;48.606;7.598;2023-07-31T01:35:44;20.33;57.97
76384;SHT30;65204;48.606;7.598;2023-07-31T01:36:15;20.30;57.95
76384;SHT30;65204;48.606;7.598;2023-07-31T01:36:45;20.35;57.97
76384;SHT30;65204;48.606;7.598;2023-07-31T01:37:16;20.33;57.93
76384;SHT30;65204;48.606;7.598;2023-07-31T01:37:46;20.33;58.01
76384;SHT30;65204;48.606;7.598;2023-07-31T01:38:20;20.33;57.77
76384;SHT30;65204;48.606;7.598;2023-07-31T01:38:51;20.33;57.73
76384;SHT30;65204;48.606;7.598;2023-07-31T01:39:21;20.36;57.67
76384;SHT30;65204;48.606;7.598;2023-07-31T01:39:52;20.36;57.64
76384;SHT30;65204;48.606;7.598;2023-07-31T01:40:22;20.36;57.66
76384;SHT30;65204;48.606;7.598;2023-07-31T01:40:52;20.38;57.70
76384;SHT30;65204;48.606;7.598;2023-07-31T01:41:23;20.38;57.62
76384;SHT30;65204;48.606;7.598;2023-07-31T01:41:54;20.38;57.67
76384;SHT30;65204;48.606;7.598;2023-07-31T01:42:24;20.39;57.63
76384;SHT30;65204;48.606;7.598;2023-07-31T01:42:54;20.39;57.62
76384;SHT30;65204;48.606;7.598;2023-07-31T01:43:25;20.39;57.58
76384;SHT30;65204;48.606;7.598;2023-07-31T01:43:55;20.38;57.58
76384;SHT30;65204;48.606;7.598;2023-07-31T01:44:26;20.43;57.57
76384;SHT30;65204;48.606;7.598;2023-07-31T01:44:56;20.42;57.59
76384;SHT30;65204;48.606;7.598;2023-07-31T01:45:26;20.45;57.68
76384;SHT30;65204;48.606;7.598;2023-07-31T01:45:57;20.45;57.59
76384;SHT30;65204;48.606;7.598;2023-07-31T01:46:27;20.49;57.34
76384;SHT30;65204;48.606;7.598;2023-07-31T01:46:57;20.43;57.60
76384;SHT30;65204;48.606;7.598;2023-07-31T01:47:30;20.46;57.51
76384;SHT30;65204;48.606;7.598;2023-07-31T01:48:00;20.49;57.42
76384;SHT30;65204;48.606;7.598;2023-07-31T01:48:30;20.50;57.45
76384;SHT30;65204;48.606;7.598;2023-07-31T01:49:05;20.48;57.38
76384;SHT30;65204;48.606;7.598;2023-07-31T01:49:36;20.49;57.23
76384;SHT30;65204;48.606;7.598;2023-07-31T01:50:06;20.49;57.31
76384;SHT30;65204;48.606;7.598;2023-07-31T01:50:37;20.50;57.30
76384;SHT30;65204;48.606;7.598;2023-07-31T01:51:07;20.52;57.24
76384;SHT30;65204;48.606;7.598;2023-07-31T01:51:37;20.53;57.27
76384;SHT30;65204;48.606;7.598;2023-07-31T01:52:08;20.53;57.25
76384;SHT30;65204;48.606;7.598;2023-07-31T01:52:38;20.55;57.24
76384;SHT30;65204;48.606;7.598;2023-07-31T01:53:08;20.55;57.23
76384;SHT30;65204;48.606;7.598;2023-07-31T01:53:39;20.56;57.24
76384;SHT30;65204;48.606;7.598;2023-07-31T01:54:09;20.56;57.23
76384;SHT30;65204;48.606;7.598;2023-07-31T01:54:39;20.57;57.17
76384;SHT30;65204;48.606;7.598;2023-07-31T01:55:10;20.57;57.15
76384;SHT30;65204;48.606;7.598;2023-07-31T01:55:40;20.59;57.09
76384;SHT30;65204;48.606;7.598;2023-07-31T01:56:10;20.63;57.02
76384;SHT30;65204;48.606;7.598;2023-07-31T01:56:41;20.65;57.01
76384;SHT30;65204;48.606;7.598;2023-07-31T01:57:11;20.65;56.96
76384;SHT30;65204;48.606;7.598;2023-07-31T01:57:41;20.65;56.99
76384;SHT30;65204;48.606;7.598;2023-07-31T01:58:12;20.65;56.93
76384;SHT30;65204;48.606;7.598;2023-07-31T01:58:42;20.65;56.90
76384;SHT30;65204;48.606;7.598;2023-07-31T01:59:12;20.66;56.94
76384;SHT30;65204;48.606;7.598;2023-07-31T01:59:43;20.67;56.89
76384;SHT30;65204;48.606;7.598;2023-07-31T02:00:13;20.67;56.91
76384;SHT30;65204;48.606;7.598;2023-07-31T02:00:43;20.69;56.85
76384;SHT30;65204;48.606;7.598;2023-07-31T02:01:14;20.70;56.86
76384;SHT30;65204;48.606;7.598;2023-07-31T02:01:44;20.72;56.87
76384;SHT30;65204;48.606;7.598;2023-07-31T02:02:14;20.73;56.90
76384;SHT30;65204;48.606;7.598;2023-07-31T02:02:45;20.72;56.87
76384;SHT30;65204;48.606;7.598;2023-07-31T02:03:15;20.75;56.84
76384;SHT30;65204;48.606;7.598;2023-07-31T02:03:45;20.75;56.78
76384;SHT30;65204;48.606;7.598;2023-07-31T02:04:16;20.75;56.75
76384;SHT30;65204;48.606;7.598;2023-07-31T02:04:46;20.77;56.70
76384;SHT30;65204;48.606;7.598;2023-07-31T02:05:17;20.79;56.71
76384;SHT30;65204;48.606;7.598;2023-07-31T02:05:48;20.80;56.87
76384;SHT30;65204;48.606;7.598;2023-07-31T02:06:19;20.79;56.76
76384;SHT30;65204;48.606;7.598;2023-07-31T02:06:49;20.77;56.83
76384;SHT30;65204;48.606;7.598;2023-07-31T02:07:20;20.79;56.91
76384;SHT30;65204;48.606;7.598;2023-07-31T02:07:50;20.79;56.92
76384;SHT30;65204;48.606;7.598;2023-07-31T02:08:20;20.79;56.89
76384;SHT30;65204;48.606;7.598;2023-07-31T02:08:51;20.79;56.84
76384;SHT30;65204;48.606;7.598;2023-07-31T02:09:21;20.79;56.84
76384;SHT30;65204;48.606;7.598;2023-07-31T02:09:51;20.81;56.53
76384;SHT30;65204;48.606;7.598;2023-07-31T02:10:22;20.81;56.54
76384;SHT30;65204;48.606;7.598;2023-07-31T02:10:53;20.79;56.56
76384;SHT30;65204;48.606;7.598;2023-07-31T02:11:23;20.83;56.61
76384;SHT30;65204;48.606;7.598;2023-07-31T02:11:54;20.83;56.62
76384;SHT30;65204;48.606;7.598;2023-07-31T02:12:24;20.84;56.53
76384;SHT30;65204;48.606;7.598;2023-07-31T02:12:54;20.84;56.53
76384;SHT30;65204;48.606;7.598;2023-07-31T02:13:25;20.83;56.65
76384;SHT30;65204;48.606;7.598;2023-07-31T02:13:55;20.81;56.59
76384;SHT30;65204;48.606;7.598;2023-07-31T02:14:25;20.84;56.62
76384;SHT30;65204;48.606;7.598;2023-07-31T02:14:56;20.84;56.52
76384;SHT30;65204;48.606;7.598;2023-07-31T02:15:26;20.86;56.34
76384;SHT30;65204;48.606;7.598;2023-07-31T02:15:56;20.86;56.26
76384;SHT30;65204;48.606;7.598;2023-07-31T02:16:27;20.84;56.14
76384;SHT30;65204;48.606;7.598;2023-07-31T02:16:57;20.83;56.24
76384;SHT30;65204;48.606;7.598;2023-07-31T02:17:28;20.81;56.45
76384;SHT30;65204;48.606;7.598;2023-07-31T02:17:59;20.81;56.31
76384;SHT30;65204;48.606;7.598;2023-07-31T02:18:29;20.83;56.16
76384;SHT30;65204;48.606;7.598;2023-07-31T02:19:00;20.80;56.10
76384;SHT30;65204;48.606;7.598;2023-07-31T02:19:30;20.83;56.14
76384;SHT30;65204;48.606;7.598;2023-07-31T02:20:00;20.83;56.16
76384;SHT30;65204;48.606;7.598;2023-07-31T02:20:33;20.81;56.36
76384;SHT30;65204;48.606;7.598;2023-07-31T02:21:04;20.81;56.40
76384;SHT30;65204;48.606;7.598;2023-07-31T02:21:34;20.83;56.49
76384;SHT30;65204;48.606;7.598;2023-07-31T02:22:05;20.83;56.66
76384;SHT30;65204;48.606;7.598;2023-07-31T02:22:35;20.84;56.75
76384;SHT30;65204;48.606;7.598;2023-07-31T02:23:05;20.84;56.78
76384;SHT30;65204;48.606;7.598;2023-07-31T02:23:35;20.84;56.83
76384;SHT30;65204;48.606;7.598;2023-07-31T02:24:06;20.83;56.78
76384;SHT30;65204;48.606;7.598;2023-07-31T02:24:36;20.81;56.82
76384;SHT30;65204;48.606;7.598;2023-07-31T02:25:07;20.87;56.83
76384;SHT30;65204;48.606;7.598;2023-07-31T02:25:37;20.87;56.82
76384;SHT30;65204;48.606;7.598;2023-07-31T02:26:08;20.89;56.76
76384;SHT30;65204;48.606;7.598;2023-07-31T02:26:38;20.87;56.81
76384;SHT30;65204;48.606;7.598;2023-07-31T02:27:08;20.89;56.76
76384;SHT30;65204;48.606;7.598;2023-07-31T02:27:38;20.90;56.82
76384;SHT30;65204;48.606;7.598;2023-07-31T02:28:09;20.89;56.95
76384;SHT30;65204;48.606;7.598;2023-07-31T02:28:39;20.87;57.35
76384;SHT30;65204;48.606;7.598;2023-07-31T02:29:12;20.89;57.40
76384;SHT30;65204;48.606;7.598;2023-07-31T02:29:43;20.87;57.47
76384;SHT30;65204;48.606;7.598;2023-07-31T02:30:13;20.86;57.45
76384;SHT30;65204;48.606;7.598;2023-07-31T02:30:44;20.87;57.29
76384;SHT30;65204;48.606;7.598;2023-07-31T02:31:16;20.86;57.22
76384;SHT30;65204;48.606;7.598;2023-07-31T02:31:46;20.86;57.29
76384;SHT30;65204;48.606;7.598;2023-07-31T02:32:17;20.84;57.26
76384;SHT30;65204;48.606;7.598;2023-07-31T02:32:47;20.86;57.23
76384;SHT30;65204;48.606;7.598;2023-07-31T02:33:17;20.86;57.26
76384;SHT30;65204;48.606;7.598;2023-07-31T02:33:48;20.86;57.22
76384;SHT30;65204;48.606;7.598;2023-07-31T02:34:18;20.87;57.09
76384;SHT30;65204;48.606;7.598;2023-07-31T02:34:48;20.86;57.10
76384;SHT30;65204;48.606;7.598;2023-07-31T02:35:19;20.86;57.09
76384;SHT30;65204;48.606;7.598;2023-07-31T02:35:49;20.87;57.11
76384;SHT30;65204;48.606;7.598;2023-07-31T02:36:19;20.87;57.01
76384;SHT30;65204;48.606;7.598;2023-07-31T02:36:49;20.89;56.82
76384;SHT30;65204;48.606;7.598;2023-07-31T02:37:20;20.90;56.82
76384;SHT30;65204;48.606;7.598;2023-07-31T02:37:50;20.86;56.89
76384;SHT30;65204;48.606;7.598;2023-07-31T02:38:21;20.87;57.00
76384;SHT30;65204;48.606;7.598;2023-07-31T02:38:51;20.84;56.89
76384;SHT30;65204;48.606;7.598;2023-07-31T02:39:21;20.89;56.90
76384;SHT30;65204;48.606;7.598;2023-07-31T02:39:52;20.89;56.92
76384;SHT30;65204;48.606;7.598;2023-07-31T02:40:22;20.86;56.92
76384;SHT30;65204;48.606;7.598;2023-07-31T02:40:53;20.86;56.97
76384;SHT30;65204;48.606;7.598;2023-07-31T02:41:23;20.86;57.05
76384;SHT30;65204;48.606;7.598;2023-07-31T02:41:54;20.84;57.03
76384;SHT30;65204;48.606;7.598;2023-07-31T02:42:24;20.87;57.04
76384;SHT30;65204;48.606;7.598;2023-07-31T02:42:54;20.87;57.09
76384;SHT30;65204;48.606;7.598;2023-07-31T02:43:24;20.86;57.25
76384;SHT30;65204;48.606;7.598;2023-07-31T02:43:55;20.89;57.16
76384;SHT30;65204;48.606;7.598;2023-07-31T02:44:25;20.87;57.09
76384;SHT30;65204;48.606;7.598;2023-07-31T02:44:56;20.86;56.95
76384;SHT30;65204;48.606;7.598;2023-07-31T02:45:26;20.86;56.94
76384;SHT30;65204;48.606;7.598;2023-07-31T02:45:56;20.87;56.94
76384;SHT30;65204;48.606;7.598;2023-07-31T02:46:27;20.84;57.03
76384;SHT30;65204;48.606;7.598;2023-07-31T02:46:57;20.87;57.14
76384;SHT30;65204;48.606;7.598;2023-07-31T02:47:27;20.84;57.21
76384;SHT30;65204;48.606;7.598;2023-07-31T02:47:58;20.89;57.29
76384;SHT30;65204;48.606;7.598;2023-07-31T02:48:28;20.87;57.15
76384;SHT30;65204;48.606;7.598;2023-07-31T02:48:58;20.86;57.17
76384;SHT30;65204;48.606;7.598;2023-07-31T02:49:29;20.86;57.22
76384;SHT30;65204;48.606;7.598;2023-07-31T02:49:59;20.83;57.51
76384;SHT30;65204;48.606;7.598;2023-07-31T02:50:30;20.83;57.33
76384;SHT30;65204;48.606;7.598;2023-07-31T02:51:00;20.84;57.26
76384;SHT30;65204;48.606;7.598;2023-07-31T02:51:30;20.83;57.18
76384;SHT30;65204;48.606;7.598;2023-07-31T02:52:01;20.86;57.16
76384;SHT30;65204;48.606;7.598;2023-07-31T02:52:31;20.81;57.14
76384;SHT30;65204;48.606;7.598;2023-07-31T02:53:01;20.81;57.17
76384;SHT30;65204;48.606;7.598;2023-07-31T02:53:32;20.79;57.34
76384;SHT30;65204;48.606;7.598;2023-07-31T02:54:02;20.81;57.31
76384;SHT30;65204;48.606;7.598;2023-07-31T02:54:32;20.80;57.27
76384;SHT30;65204;48.606;7.598;2023-07-31T02:55:03;20.77;57.42
76384;SHT30;65204;48.606;7.598;2023-07-31T02:55:33;20.77;57.68
76384;SHT30;65204;48.606;7.598;2023-07-31T02:56:04;20.73;57.76
76384;SHT30;65204;48.606;7.598;2023-07-31T02:56:34;20.72;57.93
76384;SHT30;65204;48.606;7.598;2023-07-31T02:57:05;20.70;57.98
76384;SHT30;65204;48.606;7.598;2023-07-31T02:57:35;20.69;57.94
76384;SHT30;65204;48.606;7.598;2023-07-31T02:58:05;20.67;58.05
76384;SHT30;65204;48.606;7.598;2023-07-31T02:58:35;20.66;58.14
76384;SHT30;65204;48.606;7.598;2023-07-31T02:59:06;20.65;58.15
76384;SHT30;65204;48.606;7.598;2023-07-31T02:59:36;20.65;58.16
76384;SHT30;65204;48.606;7.598;2023-07-31T03:00:07;20.66;58.05
76384;SHT30;65204;48.606;7.598;2023-07-31T03:00:42;20.62;58.03
76384;SHT30;65204;48.606;7.598;2023-07-31T03:01:12;20.60;58.13
76384;SHT30;65204;48.606;7.598;2023-07-31T03:01:43;20.60;58.26
76384;SHT30;65204;48.606;7.598;2023-07-31T03:02:13;20.60;58.42
76384;SHT30;65204;48.606;7.598;2023-07-31T03:02:44;20.59;58.50
76384;SHT30;65204;48.606;7.598;2023-07-31T03:03:14;20.57;58.40
76384;SHT30;65204;48.606;7.598;2023-07-31T03:03:45;20.56;58.48
76384;SHT30;65204;48.606;7.598;2023-07-31T03:04:15;20.53;58.43
76384;SHT30;65204;48.606;7.598;2023-07-31T03:04:45;20.55;58.48
76384;SHT30;65204;48.606;7.598;2023-07-31T03:05:16;20.50;58.57
76384;SHT30;65204;48.606;7.598;2023-07-31T03:05:46;20.49;58.54
76384;SHT30;65204;48.606;7.598;2023-07-31T03:06:16;20.49;58.56
76384;SHT30;65204;48.606;7.598;2023-07-31T03:06:47;20.46;58.49
76384;SHT30;65204;48.606;7.598;2023-07-31T03:07:17;20.43;58.44
76384;SHT30;65204;48.606;7.598;2023-07-31T03:07:47;20.46;58.51
76384;SHT30;65204;48.606;7.598;2023-07-31T03:08:17;20.45;58.57
76384;SHT30;65204;48.606;7.598;2023-07-31T03:08:48;20.45;58.63
76384;SHT30;65204;48.606;7.598;2023-07-31T03:09:18;20.43;58.61
76384;SHT30;65204;48.606;7.598;2023-07-31T03:09:49;20.42;58.72
76384;SHT30;65204;48.606;7.598;2023-07-31T03:10:19;20.40;58.67
76384;SHT30;65204;48.606;7.598;2023-07-31T03:10:49;20.42;58.63
76384;SHT30;65204;48.606;7.598;2023-07-31T03:11:20;20.40;58.64
76384;SHT30;65204;48.606;7.598;2023-07-31T03:11:50;20.43;58.51
76384;SHT30;65204;48.606;7.598;2023-07-31T03:12:20;20.39;58.68
76384;SHT30;65204;48.606;7.598;2023-07-31T03:12:50;20.35;58.77
76384;SHT30;65204;48.606;7.598;2023-07-31T03:13:21;20.35;58.72
76384;SHT30;65204;48.606;7.598;2023-07-31T03:13:51;20.35;58.72
76384;SHT30;65204;48.606;7.598;2023-07-31T03:14:22;20.33;58.80
76384;SHT30;65204;48.606;7.598;2023-07-31T03:14:52;20.35;58.79
76384;SHT30;65204;48.606;7.598;2023-07-31T03:15:23;20.33;58.76
76384;SHT30;65204;48.606;7.598;2023-07-31T03:15:53;20.32;58.83
76384;SHT30;65204;48.606;7.598;2023-07-31T03:16:23;20.28;59.15
76384;SHT30;65204;48.606;7.598;2023-07-31T03:16:53;20.30;59.12
76384;SHT30;65204;48.606;7.598;2023-07-31T03:17:24;20.30;59.03
76384;SHT30;65204;48.606;7.598;2023-07-31T03:17:54;20.32;59.14
76384;SHT30;65204;48.606;7.598;2023-07-31T03:18:24;20.29;59.16
76384;SHT30;65204;48.606;7.598;2023-07-31T03:18:55;20.30;59.13
76384;SHT30;65204;48.606;7.598;2023-07-31T03:19:25;20.32;59.20
76384;SHT30;65204;48.606;7.598;2023-07-31T03:19:55;20.29;59.29
76384;SHT30;65204;48.606;7.598;2023-07-31T03:20:26;20.33;59.24
76384;SHT30;65204;48.606;7.598;2023-07-31T03:20:56;20.32;59.40
76384;SHT30;65204;48.606;7.598;2023-07-31T03:21:26;20.33;59.40
76384;SHT30;65204;48.606;7.598;2023-07-31T03:21:56;20.35;59.37